sensor_id;sensor_type;location;lat;lon;timestamp;P1;durP1;ratioP1;P2;durP2;ratioP2
13816;SDS011;6979;52.116;5.286;2023-04-03T00:01:42;0.80;;;0.80;;
13816;SDS011;6979;52.116;5.286;2023-04-03T00:04:09;1.73;;;1.43;;
13816;SDS011;6979;52.116;5.286;2023-04-03T00:06:35;1.13;;;0.97;;
13816;SDS011;6979;52.116;5.286;2023-04-03T00:09:02;1.40;;;1.30;;
13816;SDS011;6979;52.116;5.286;2023-04-03T00:11:29;1.40;;;1.30;;
13816;SDS011;6979;52.116;5.286;2023-04-03T00:13:56;1.13;;;1.07;;
13816;SDS011;6979;52.116;5.286;2023-04-03T00:16:24;1.90;;;1.30;;
13816;SDS011;6979;52.116;5.286;2023-04-03T00:18:51;2.03;;;1.37;;
13816;SDS011;6979;52.116;5.286;2023-04-03T00:21:18;1.50;;;1.40;;
13816;SDS011;6979;52.116;5.286;2023-04-03T00:23:45;2.30;;;1.47;;
13816;SDS011;6979;52.116;5.286;2023-04-03T00:26:12;1.50;;;1.20;;
13816;SDS011;6979;52.116;5.286;2023-04-03T00:28:39;1.50;;;1.40;;
13816;SDS011;6979;52.116;5.286;2023-04-03T00:31:06;1.57;;;1.30;;
13816;SDS011;6979;52.116;5.286;2023-04-03T00:33:35;2.17;;;1.63;;
13816;SDS011;6979;52.116;5.286;2023-04-03T00:36:05;1.20;;;1.10;;
13816;SDS011;6979;52.116;5.286;2023-04-03T00:38:32;1.27;;;1.20;;
13816;SDS011;6979;52.116;5.286;2023-04-03T00:41:02;1.23;;;1.10;;
13816;SDS011;6979;52.116;5.286;2023-04-03T00:43:29;1.40;;;1.27;;
13816;SDS011;6979;52.116;5.286;2023-04-03T00:45:57;1.33;;;1.27;;
13816;SDS011;6979;52.116;5.286;2023-04-03T00:48:26;1.37;;;1.10;;
13816;SDS011;6979;52.116;5.286;2023-04-03T00:50:58;1.33;;;1.23;;
13816;SDS011;6979;52.116;5.286;2023-04-03T00:53:26;1.40;;;1.30;;
13816;SDS011;6979;52.116;5.286;2023-04-03T00:55:57;1.97;;;1.33;;
13816;SDS011;6979;52.116;5.286;2023-04-03T00:58:26;1.00;;;0.90;;
13816;SDS011;6979;52.116;5.286;2023-04-03T01:00:57;1.43;;;1.33;;
13816;SDS011;6979;52.116;5.286;2023-04-03T01:03:25;1.13;;;1.07;;
13816;SDS011;6979;52.116;5.286;2023-04-03T01:05:53;1.33;;;1.17;;
13816;SDS011;6979;52.116;5.286;2023-04-03T01:08:21;1.40;;;1.30;;
13816;SDS011;6979;52.116;5.286;2023-04-03T01:10:48;1.67;;;1.50;;
13816;SDS011;6979;52.116;5.286;2023-04-03T01:13:20;2.70;;;1.53;;
13816;SDS011;6979;52.116;5.286;2023-04-03T01:15:50;1.50;;;1.40;;
13816;SDS011;6979;52.116;5.286;2023-04-03T01:18:18;1.70;;;1.30;;
13816;SDS011;6979;52.116;5.286;2023-04-03T01:21:01;1.60;;;1.50;;
13816;SDS011;6979;52.116;5.286;2023-04-03T01:23:52;1.53;;;1.37;;
13816;SDS011;6979;52.116;5.286;2023-04-03T01:26:25;1.73;;;1.50;;
13816;SDS011;6979;52.116;5.286;2023-04-03T01:28:54;1.50;;;1.40;;
13816;SDS011;6979;52.116;5.286;2023-04-03T01:31:22;1.50;;;1.33;;
13816;SDS011;6979;52.116;5.286;2023-04-03T01:34:02;2.40;;;1.00;;
13816;SDS011;6979;52.116;5.286;2023-04-03T01:36:31;1.70;;;1.60;;
13816;SDS011;6979;52.116;5.286;2023-04-03T01:38:58;1.33;;;1.33;;
13816;SDS011;6979;52.116;5.286;2023-04-03T01:41:29;2.40;;;1.47;;
13816;SDS011;6979;52.116;5.286;2023-04-03T01:44:09;1.40;;;1.30;;
13816;SDS011;6979;52.116;5.286;2023-04-03T01:46:36;1.60;;;1.50;;
13816;SDS011;6979;52.116;5.286;2023-04-03T01:49:04;1.33;;;1.20;;
13816;SDS011;6979;52.116;5.286;2023-04-03T01:51:31;2.13;;;1.40;;
13816;SDS011;6979;52.116;5.286;2023-04-03T01:53:58;2.33;;;1.40;;
13816;SDS011;6979;52.116;5.286;2023-04-03T01:56:25;1.20;;;1.20;;
13816;SDS011;6979;52.116;5.286;2023-04-03T01:58:53;2.03;;;1.40;;
13816;SDS011;6979;52.116;5.286;2023-04-03T02:01:26;2.10;;;1.90;;
13816;SDS011;6979;52.116;5.286;2023-04-03T02:04:06;1.97;;;1.60;;
13816;SDS011;6979;52.116;5.286;2023-04-03T02:06:33;2.13;;;1.93;;
13816;SDS011;6979;52.116;5.286;2023-04-03T02:09:00;2.57;;;1.70;;
13816;SDS011;6979;52.116;5.286;2023-04-03T02:11:29;2.10;;;1.50;;
13816;SDS011;6979;52.116;5.286;2023-04-03T02:13:56;2.87;;;1.60;;
13816;SDS011;6979;52.116;5.286;2023-04-03T02:16:23;1.40;;;1.30;;
13816;SDS011;6979;52.116;5.286;2023-04-03T02:18:49;1.50;;;1.40;;
13816;SDS011;6979;52.116;5.286;2023-04-03T02:21:18;2.43;;;1.80;;
13816;SDS011;6979;52.116;5.286;2023-04-03T02:23:44;1.87;;;1.30;;
13816;SDS011;6979;52.116;5.286;2023-04-03T02:26:12;1.50;;;1.30;;
13816;SDS011;6979;52.116;5.286;2023-04-03T02:28:40;2.07;;;1.30;;
13816;SDS011;6979;52.116;5.286;2023-04-03T02:31:08;1.50;;;1.40;;
13816;SDS011;6979;52.116;5.286;2023-04-03T02:33:36;2.57;;;1.67;;
13816;SDS011;6979;52.116;5.286;2023-04-03T02:36:07;2.03;;;1.37;;
13816;SDS011;6979;52.116;5.286;2023-04-03T02:38:38;2.50;;;1.77;;
13816;SDS011;6979;52.116;5.286;2023-04-03T02:41:05;1.37;;;1.27;;
13816;SDS011;6979;52.116;5.286;2023-04-03T02:43:34;2.50;;;1.20;;
13816;SDS011;6979;52.116;5.286;2023-04-03T02:46:02;2.30;;;1.30;;
13816;SDS011;6979;52.116;5.286;2023-04-03T02:48:30;2.43;;;1.30;;
13816;SDS011;6979;52.116;5.286;2023-04-03T02:50:57;1.50;;;1.40;;
13816;SDS011;6979;52.116;5.286;2023-04-03T02:53:24;1.50;;;1.40;;
13816;SDS011;6979;52.116;5.286;2023-04-03T02:55:52;1.37;;;1.27;;
13816;SDS011;6979;52.116;5.286;2023-04-03T02:58:19;1.83;;;1.73;;
13816;SDS011;6979;52.116;5.286;2023-04-03T03:00:46;1.93;;;1.83;;
13816;SDS011;6979;52.116;5.286;2023-04-03T03:03:13;2.40;;;1.73;;
13816;SDS011;6979;52.116;5.286;2023-04-03T03:05:40;1.90;;;1.40;;
13816;SDS011;6979;52.116;5.286;2023-04-03T03:08:07;1.50;;;1.40;;
13816;SDS011;6979;52.116;5.286;2023-04-03T03:10:34;2.83;;;1.70;;
13816;SDS011;6979;52.116;5.286;2023-04-03T03:13:02;1.67;;;1.57;;
13816;SDS011;6979;52.116;5.286;2023-04-03T03:15:29;2.33;;;1.80;;
13816;SDS011;6979;52.116;5.286;2023-04-03T03:17:56;1.80;;;1.60;;
13816;SDS011;6979;52.116;5.286;2023-04-03T03:20:22;1.73;;;1.47;;
13816;SDS011;6979;52.116;5.286;2023-04-03T03:22:50;2.30;;;1.93;;
13816;SDS011;6979;52.116;5.286;2023-04-03T03:25:16;1.80;;;1.63;;
13816;SDS011;6979;52.116;5.286;2023-04-03T03:27:43;1.37;;;1.27;;
13816;SDS011;6979;52.116;5.286;2023-04-03T03:30:12;2.60;;;1.70;;
13816;SDS011;6979;52.116;5.286;2023-04-03T03:32:39;1.97;;;1.30;;
13816;SDS011;6979;52.116;5.286;2023-04-03T03:35:06;1.67;;;1.57;;
13816;SDS011;6979;52.116;5.286;2023-04-03T03:37:34;2.30;;;2.10;;
13816;SDS011;6979;52.116;5.286;2023-04-03T03:40:01;1.80;;;1.70;;
13816;SDS011;6979;52.116;5.286;2023-04-03T03:42:29;1.53;;;1.43;;
13816;SDS011;6979;52.116;5.286;2023-04-03T03:44:56;2.27;;;1.73;;
13816;SDS011;6979;52.116;5.286;2023-04-03T03:47:24;1.73;;;1.50;;
13816;SDS011;6979;52.116;5.286;2023-04-03T03:49:51;1.50;;;1.40;;
13816;SDS011;6979;52.116;5.286;2023-04-03T03:52:18;1.60;;;1.50;;
13816;SDS011;6979;52.116;5.286;2023-04-03T03:54:45;1.70;;;1.60;;
13816;SDS011;6979;52.116;5.286;2023-04-03T03:57:14;2.13;;;1.93;;
13816;SDS011;6979;52.116;5.286;2023-04-03T03:59:41;1.83;;;1.70;;
13816;SDS011;6979;52.116;5.286;2023-04-03T04:02:09;3.23;;;1.70;;
13816;SDS011;6979;52.116;5.286;2023-04-03T04:04:38;2.97;;;1.60;;
13816;SDS011;6979;52.116;5.286;2023-04-03T04:07:05;3.13;;;1.70;;
13816;SDS011;6979;52.116;5.286;2023-04-03T04:09:33;1.73;;;1.63;;
13816;SDS011;6979;52.116;5.286;2023-04-03T04:12:00;2.57;;;1.83;;
13816;SDS011;6979;52.116;5.286;2023-04-03T04:14:28;2.63;;;2.07;;
13816;SDS011;6979;52.116;5.286;2023-04-03T04:16:55;2.30;;;1.57;;
13816;SDS011;6979;52.116;5.286;2023-04-03T04:19:25;2.20;;;1.93;;
13816;SDS011;6979;52.116;5.286;2023-04-03T04:21:53;2.17;;;1.60;;
13816;SDS011;6979;52.116;5.286;2023-04-03T04:24:23;3.60;;;1.90;;
13816;SDS011;6979;52.116;5.286;2023-04-03T04:26:52;1.73;;;1.63;;
13816;SDS011;6979;52.116;5.286;2023-04-03T04:29:20;3.83;;;2.43;;
13816;SDS011;6979;52.116;5.286;2023-04-03T04:31:49;2.40;;;2.20;;
13816;SDS011;6979;52.116;5.286;2023-04-03T04:34:17;1.60;;;1.50;;
13816;SDS011;6979;52.116;5.286;2023-04-03T04:36:44;2.37;;;1.60;;
13816;SDS011;6979;52.116;5.286;2023-04-03T04:39:12;2.03;;;1.87;;
13816;SDS011;6979;52.116;5.286;2023-04-03T04:41:39;2.23;;;1.97;;
13816;SDS011;6979;52.116;5.286;2023-04-03T04:44:07;2.00;;;1.73;;
13816;SDS011;6979;52.116;5.286;2023-04-03T04:46:35;4.27;;;2.17;;
13816;SDS011;6979;52.116;5.286;2023-04-03T04:49:03;2.07;;;1.70;;
13816;SDS011;6979;52.116;5.286;2023-04-03T04:51:30;2.00;;;1.90;;
13816;SDS011;6979;52.116;5.286;2023-04-03T04:53:57;4.27;;;2.10;;
13816;SDS011;6979;52.116;5.286;2023-04-03T04:56:26;2.43;;;1.80;;
13816;SDS011;6979;52.116;5.286;2023-04-03T04:58:55;2.07;;;1.83;;
13816;SDS011;6979;52.116;5.286;2023-04-03T05:01:23;3.23;;;2.10;;
13816;SDS011;6979;52.116;5.286;2023-04-03T05:03:56;3.27;;;2.13;;
13816;SDS011;6979;52.116;5.286;2023-04-03T05:06:24;2.63;;;1.70;;
13816;SDS011;6979;52.116;5.286;2023-04-03T05:08:52;2.03;;;1.60;;
13816;SDS011;6979;52.116;5.286;2023-04-03T05:11:20;3.17;;;1.97;;
13816;SDS011;6979;52.116;5.286;2023-04-03T05:13:50;3.57;;;1.90;;
13816;SDS011;6979;52.116;5.286;2023-04-03T05:16:17;4.37;;;3.47;;
13816;SDS011;6979;52.116;5.286;2023-04-03T05:18:45;4.83;;;2.57;;
13816;SDS011;6979;52.116;5.286;2023-04-03T05:21:17;5.03;;;2.70;;
13816;SDS011;6979;52.116;5.286;2023-04-03T05:23:45;2.83;;;2.23;;
13816;SDS011;6979;52.116;5.286;2023-04-03T05:26:13;2.73;;;2.00;;
13816;SDS011;6979;52.116;5.286;2023-04-03T05:28:41;4.13;;;2.13;;
13816;SDS011;6979;52.116;5.286;2023-04-03T05:31:10;2.40;;;2.20;;
13816;SDS011;6979;52.116;5.286;2023-04-03T05:33:39;2.17;;;1.97;;
13816;SDS011;6979;52.116;5.286;2023-04-03T05:36:09;2.47;;;1.90;;
13816;SDS011;6979;52.116;5.286;2023-04-03T05:38:41;2.20;;;1.73;;
13816;SDS011;6979;52.116;5.286;2023-04-03T05:41:08;3.07;;;2.10;;
13816;SDS011;6979;52.116;5.286;2023-04-03T05:43:35;4.23;;;2.43;;
13816;SDS011;6979;52.116;5.286;2023-04-03T05:46:08;3.30;;;1.87;;
13816;SDS011;6979;52.116;5.286;2023-04-03T05:48:39;2.40;;;1.97;;
13816;SDS011;6979;52.116;5.286;2023-04-03T05:51:12;1.80;;;1.70;;
13816;SDS011;6979;52.116;5.286;2023-04-03T05:53:41;2.20;;;1.90;;
13816;SDS011;6979;52.116;5.286;2023-04-03T05:56:09;2.93;;;2.20;;
13816;SDS011;6979;52.116;5.286;2023-04-03T05:58:39;2.90;;;2.10;;
13816;SDS011;6979;52.116;5.286;2023-04-03T06:01:06;3.10;;;2.10;;
13816;SDS011;6979;52.116;5.286;2023-04-03T06:03:35;2.47;;;2.27;;
13816;SDS011;6979;52.116;5.286;2023-04-03T06:06:03;3.93;;;2.17;;
13816;SDS011;6979;52.116;5.286;2023-04-03T06:08:30;3.43;;;1.80;;
13816;SDS011;6979;52.116;5.286;2023-04-03T06:10:58;1.87;;;1.57;;
13816;SDS011;6979;52.116;5.286;2023-04-03T06:13:26;1.77;;;1.60;;
13816;SDS011;6979;52.116;5.286;2023-04-03T06:15:53;2.23;;;1.80;;
13816;SDS011;6979;52.116;5.286;2023-04-03T06:18:21;2.53;;;1.77;;
13816;SDS011;6979;52.116;5.286;2023-04-03T06:20:49;2.20;;;2.00;;
13816;SDS011;6979;52.116;5.286;2023-04-03T06:23:16;2.10;;;1.90;;
13816;SDS011;6979;52.116;5.286;2023-04-03T06:25:43;3.03;;;2.13;;
13816;SDS011;6979;52.116;5.286;2023-04-03T06:28:10;2.30;;;1.83;;
13816;SDS011;6979;52.116;5.286;2023-04-03T06:30:37;3.17;;;2.60;;
13816;SDS011;6979;52.116;5.286;2023-04-03T06:33:04;3.60;;;2.10;;
13816;SDS011;6979;52.116;5.286;2023-04-03T06:35:30;1.83;;;1.60;;
13816;SDS011;6979;52.116;5.286;2023-04-03T06:38:01;4.30;;;2.30;;
13816;SDS011;6979;52.116;5.286;2023-04-03T06:40:29;2.57;;;1.83;;
13816;SDS011;6979;52.116;5.286;2023-04-03T06:42:56;2.07;;;1.67;;
13816;SDS011;6979;52.116;5.286;2023-04-03T06:45:23;2.30;;;1.60;;
13816;SDS011;6979;52.116;5.286;2023-04-03T06:47:50;5.00;;;2.03;;
13816;SDS011;6979;52.116;5.286;2023-04-03T06:50:17;2.83;;;1.60;;
13816;SDS011;6979;52.116;5.286;2023-04-03T06:52:44;3.43;;;1.83;;
13816;SDS011;6979;52.116;5.286;2023-04-03T06:55:13;3.10;;;2.20;;
13816;SDS011;6979;52.116;5.286;2023-04-03T06:57:40;2.53;;;1.80;;
13816;SDS011;6979;52.116;5.286;2023-04-03T07:00:08;3.90;;;2.00;;
13816;SDS011;6979;52.116;5.286;2023-04-03T07:02:37;5.07;;;3.00;;
13816;SDS011;6979;52.116;5.286;2023-04-03T07:05:04;2.20;;;2.00;;
13816;SDS011;6979;52.116;5.286;2023-04-03T07:07:31;4.63;;;1.97;;
13816;SDS011;6979;52.116;5.286;2023-04-03T07:10:01;2.23;;;1.70;;
13816;SDS011;6979;52.116;5.286;2023-04-03T07:12:29;2.87;;;1.60;;
13816;SDS011;6979;52.116;5.286;2023-04-03T07:14:56;2.90;;;1.37;;
13816;SDS011;6979;52.116;5.286;2023-04-03T07:17:23;2.90;;;1.67;;
13816;SDS011;6979;52.116;5.286;2023-04-03T07:19:50;4.13;;;1.80;;
13816;SDS011;6979;52.116;5.286;2023-04-03T07:22:17;1.90;;;1.70;;
13816;SDS011;6979;52.116;5.286;2023-04-03T07:24:44;2.00;;;1.73;;
13816;SDS011;6979;52.116;5.286;2023-04-03T07:27:11;2.27;;;1.90;;
13816;SDS011;6979;52.116;5.286;2023-04-03T07:29:40;2.80;;;1.80;;
13816;SDS011;6979;52.116;5.286;2023-04-03T07:32:07;5.10;;;1.67;;
13816;SDS011;6979;52.116;5.286;2023-04-03T07:34:34;2.20;;;1.90;;
13816;SDS011;6979;52.116;5.286;2023-04-03T07:37:02;3.60;;;2.00;;
13816;SDS011;6979;52.116;5.286;2023-04-03T07:39:29;1.50;;;1.37;;
13816;SDS011;6979;52.116;5.286;2023-04-03T07:41:56;5.57;;;1.93;;
13816;SDS011;6979;52.116;5.286;2023-04-03T07:44:23;2.20;;;1.70;;
13816;SDS011;6979;52.116;5.286;2023-04-03T07:46:52;1.50;;;1.40;;
13816;SDS011;6979;52.116;5.286;2023-04-03T07:49:20;2.43;;;1.50;;
13816;SDS011;6979;52.116;5.286;2023-04-03T07:51:48;2.37;;;1.50;;
13816;SDS011;6979;52.116;5.286;2023-04-03T07:54:15;2.97;;;1.57;;
13816;SDS011;6979;52.116;5.286;2023-04-03T07:56:42;2.27;;;1.10;;
13816;SDS011;6979;52.116;5.286;2023-04-03T07:59:10;2.17;;;1.70;;
13816;SDS011;6979;52.116;5.286;2023-04-03T08:01:37;1.60;;;1.50;;
13816;SDS011;6979;52.116;5.286;2023-04-03T08:04:05;1.67;;;1.40;;
13816;SDS011;6979;52.116;5.286;2023-04-03T08:06:32;2.40;;;1.73;;
13816;SDS011;6979;52.116;5.286;2023-04-03T08:09:01;2.37;;;1.87;;
13816;SDS011;6979;52.116;5.286;2023-04-03T08:11:30;2.30;;;1.87;;
13816;SDS011;6979;52.116;5.286;2023-04-03T08:13:57;2.73;;;2.00;;
13816;SDS011;6979;52.116;5.286;2023-04-03T08:16:24;3.83;;;2.00;;
13816;SDS011;6979;52.116;5.286;2023-04-03T08:18:52;1.40;;;1.30;;
13816;SDS011;6979;52.116;5.286;2023-04-03T08:21:22;1.43;;;1.33;;
13816;SDS011;6979;52.116;5.286;2023-04-03T08:23:49;1.47;;;1.37;;
13816;SDS011;6979;52.116;5.286;2023-04-03T08:26:17;2.90;;;1.77;;
13816;SDS011;6979;52.116;5.286;2023-04-03T08:28:45;1.40;;;1.30;;
13816;SDS011;6979;52.116;5.286;2023-04-03T08:31:13;1.40;;;1.30;;
13816;SDS011;6979;52.116;5.286;2023-04-03T08:33:43;3.50;;;1.20;;
13816;SDS011;6979;52.116;5.286;2023-04-03T08:36:16;1.27;;;1.17;;
13816;SDS011;6979;52.116;5.286;2023-04-03T08:38:47;1.40;;;1.20;;
13816;SDS011;6979;52.116;5.286;2023-04-03T08:41:15;1.90;;;1.70;;
13816;SDS011;6979;52.116;5.286;2023-04-03T08:43:53;2.43;;;1.27;;
13816;SDS011;6979;52.116;5.286;2023-04-03T08:46:26;1.23;;;1.13;;
13816;SDS011;6979;52.116;5.286;2023-04-03T08:49:03;2.63;;;1.40;;
13816;SDS011;6979;52.116;5.286;2023-04-03T08:51:57;2.60;;;1.50;;
13816;SDS011;6979;52.116;5.286;2023-04-03T08:54:29;0.97;;;0.97;;
13816;SDS011;6979;52.116;5.286;2023-04-03T08:56:59;1.97;;;1.30;;
13816;SDS011;6979;52.116;5.286;2023-04-03T08:59:31;1.10;;;1.00;;
13816;SDS011;6979;52.116;5.286;2023-04-03T09:02:03;5.63;;;3.30;;
13816;SDS011;6979;52.116;5.286;2023-04-03T09:04:39;2.40;;;1.50;;
13816;SDS011;6979;52.116;5.286;2023-04-03T09:07:08;1.97;;;1.43;;
13816;SDS011;6979;52.116;5.286;2023-04-03T09:09:43;1.20;;;0.93;;
13816;SDS011;6979;52.116;5.286;2023-04-03T09:12:16;0.70;;;0.70;;
13816;SDS011;6979;52.116;5.286;2023-04-03T09:14:54;1.67;;;1.10;;
13816;SDS011;6979;52.116;5.286;2023-04-03T09:17:31;0.77;;;0.77;;
13816;SDS011;6979;52.116;5.286;2023-04-03T09:20:10;0.90;;;0.70;;
13816;SDS011;6979;52.116;5.286;2023-04-03T09:22:43;0.87;;;0.63;;
13816;SDS011;6979;52.116;5.286;2023-04-03T09:25:13;0.83;;;0.67;;
13816;SDS011;6979;52.116;5.286;2023-04-03T09:27:43;1.07;;;0.90;;
13816;SDS011;6979;52.116;5.286;2023-04-03T09:30:12;1.40;;;0.87;;
13816;SDS011;6979;52.116;5.286;2023-04-03T09:32:41;0.67;;;0.67;;
13816;SDS011;6979;52.116;5.286;2023-04-03T09:35:16;0.83;;;0.60;;
13816;SDS011;6979;52.116;5.286;2023-04-03T09:37:47;1.77;;;0.90;;
13816;SDS011;6979;52.116;5.286;2023-04-03T09:40:29;0.60;;;0.60;;
13816;SDS011;6979;52.116;5.286;2023-04-03T09:43:19;0.60;;;0.60;;
13816;SDS011;6979;52.116;5.286;2023-04-03T09:45:49;0.80;;;0.80;;
13816;SDS011;6979;52.116;5.286;2023-04-03T09:48:17;0.87;;;0.73;;
13816;SDS011;6979;52.116;5.286;2023-04-03T09:50:53;0.80;;;0.80;;
13816;SDS011;6979;52.116;5.286;2023-04-03T09:53:31;0.90;;;0.90;;
13816;SDS011;6979;52.116;5.286;2023-04-03T09:56:02;0.70;;;0.70;;
13816;SDS011;6979;52.116;5.286;2023-04-03T09:58:31;0.73;;;0.60;;
13816;SDS011;6979;52.116;5.286;2023-04-03T10:01:01;1.00;;;0.77;;
13816;SDS011;6979;52.116;5.286;2023-04-03T10:03:30;0.63;;;0.60;;
13816;SDS011;6979;52.116;5.286;2023-04-03T10:05:58;0.60;;;0.60;;
13816;SDS011;6979;52.116;5.286;2023-04-03T10:08:27;0.80;;;0.80;;
13816;SDS011;6979;52.116;5.286;2023-04-03T10:11:07;0.80;;;0.80;;
13816;SDS011;6979;52.116;5.286;2023-04-03T10:13:49;1.23;;;0.77;;
13816;SDS011;6979;52.116;5.286;2023-04-03T10:16:18;0.70;;;0.70;;
13816;SDS011;6979;52.116;5.286;2023-04-03T10:18:49;0.43;;;0.43;;
13816;SDS011;6979;52.116;5.286;2023-04-03T10:21:28;0.60;;;0.60;;
13816;SDS011;6979;52.116;5.286;2023-04-03T10:24:05;0.70;;;0.50;;
13816;SDS011;6979;52.116;5.286;2023-04-03T10:26:41;0.43;;;0.40;;
13816;SDS011;6979;52.116;5.286;2023-04-03T10:29:16;0.53;;;0.53;;
13816;SDS011;6979;52.116;5.286;2023-04-03T10:31:51;0.97;;;0.80;;
13816;SDS011;6979;52.116;5.286;2023-04-03T10:34:26;1.23;;;0.70;;
13816;SDS011;6979;52.116;5.286;2023-04-03T10:36:58;0.70;;;0.70;;
13816;SDS011;6979;52.116;5.286;2023-04-03T10:39:33;0.47;;;0.47;;
13816;SDS011;6979;52.116;5.286;2023-04-03T10:42:08;0.53;;;0.40;;
13816;SDS011;6979;52.116;5.286;2023-04-03T10:44:42;0.50;;;0.50;;
13816;SDS011;6979;52.116;5.286;2023-04-03T10:47:21;0.60;;;0.60;;
13816;SDS011;6979;52.116;5.286;2023-04-03T10:49:53;0.53;;;0.53;;
13816;SDS011;6979;52.116;5.286;2023-04-03T10:52:29;0.50;;;0.50;;
13816;SDS011;6979;52.116;5.286;2023-04-03T10:55:04;0.50;;;0.50;;
13816;SDS011;6979;52.116;5.286;2023-04-03T10:57:40;0.40;;;0.40;;
13816;SDS011;6979;52.116;5.286;2023-04-03T11:00:13;0.87;;;0.47;;
13816;SDS011;6979;52.116;5.286;2023-04-03T11:02:45;0.60;;;0.30;;
13816;SDS011;6979;52.116;5.286;2023-04-03T11:05:18;0.50;;;0.50;;
13816;SDS011;6979;52.116;5.286;2023-04-03T11:07:53;0.70;;;0.40;;
13816;SDS011;6979;52.116;5.286;2023-04-03T11:10:30;0.87;;;0.87;;
13816;SDS011;6979;52.116;5.286;2023-04-03T11:13:06;1.17;;;0.60;;
13816;SDS011;6979;52.116;5.286;2023-04-03T11:15:38;0.57;;;0.57;;
13816;SDS011;6979;52.116;5.286;2023-04-03T11:18:06;0.37;;;0.37;;
13816;SDS011;6979;52.116;5.286;2023-04-03T11:20:37;0.60;;;0.60;;
13816;SDS011;6979;52.116;5.286;2023-04-03T11:23:11;1.13;;;1.10;;
13816;SDS011;6979;52.116;5.286;2023-04-03T11:25:41;0.90;;;0.90;;
13816;SDS011;6979;52.116;5.286;2023-04-03T11:28:11;0.67;;;0.67;;
13816;SDS011;6979;52.116;5.286;2023-04-03T11:30:42;0.67;;;0.67;;
13816;SDS011;6979;52.116;5.286;2023-04-03T11:33:21;0.90;;;0.50;;
13816;SDS011;6979;52.116;5.286;2023-04-03T11:35:57;0.90;;;0.67;;
13816;SDS011;6979;52.116;5.286;2023-04-03T11:38:28;0.77;;;0.77;;
13816;SDS011;6979;52.116;5.286;2023-04-03T11:40:59;0.83;;;0.60;;
13816;SDS011;6979;52.116;5.286;2023-04-03T11:43:29;0.67;;;0.67;;
13816;SDS011;6979;52.116;5.286;2023-04-03T11:45:57;1.00;;;1.00;;
13816;SDS011;6979;52.116;5.286;2023-04-03T11:48:44;0.40;;;0.40;;
13816;SDS011;6979;52.116;5.286;2023-04-03T12:06:49;0.83;;;0.83;;
13816;SDS011;6979;52.116;5.286;2023-04-03T12:12:33;0.73;;;0.70;;
13816;SDS011;6979;52.116;5.286;2023-04-03T12:15:25;0.70;;;0.60;;
13816;SDS011;6979;52.116;5.286;2023-04-03T12:18:37;0.73;;;0.73;;
13816;SDS011;6979;52.116;5.286;2023-04-03T12:21:08;1.03;;;0.80;;
13816;SDS011;6979;52.116;5.286;2023-04-03T12:23:35;1.60;;;1.20;;
13816;SDS011;6979;52.116;5.286;2023-04-03T12:26:21;1.73;;;1.30;;
13816;SDS011;6979;52.116;5.286;2023-04-03T12:28:52;0.90;;;0.90;;
13816;SDS011;6979;52.116;5.286;2023-04-03T12:31:20;0.90;;;0.80;;
13816;SDS011;6979;52.116;5.286;2023-04-03T12:36:47;0.70;;;0.70;;
13816;SDS011;6979;52.116;5.286;2023-04-03T12:39:24;1.00;;;1.00;;
13816;SDS011;6979;52.116;5.286;2023-04-03T12:42:04;0.83;;;0.83;;
13816;SDS011;6979;52.116;5.286;2023-04-03T12:44:46;1.53;;;1.10;;
13816;SDS011;6979;52.116;5.286;2023-04-03T12:47:25;0.70;;;0.70;;
13816;SDS011;6979;52.116;5.286;2023-04-03T12:49:59;1.27;;;1.17;;
13816;SDS011;6979;52.116;5.286;2023-04-03T12:52:32;0.73;;;0.63;;
13816;SDS011;6979;52.116;5.286;2023-04-03T12:55:07;0.73;;;0.73;;
13816;SDS011;6979;52.116;5.286;2023-04-03T12:57:40;1.93;;;1.50;;
13816;SDS011;6979;52.116;5.286;2023-04-03T13:03:05;0.80;;;0.80;;
13816;SDS011;6979;52.116;5.286;2023-04-03T13:05:46;1.00;;;0.90;;
13816;SDS011;6979;52.116;5.286;2023-04-03T13:08:13;0.80;;;0.80;;
13816;SDS011;6979;52.116;5.286;2023-04-03T13:10:47;0.90;;;0.90;;
13816;SDS011;6979;52.116;5.286;2023-04-03T13:13:18;1.50;;;1.00;;
13816;SDS011;6979;52.116;5.286;2023-04-03T13:15:46;1.03;;;0.93;;
13816;SDS011;6979;52.116;5.286;2023-04-03T13:18:25;2.23;;;1.27;;
13816;SDS011;6979;52.116;5.286;2023-04-03T13:20:57;1.07;;;1.00;;
13816;SDS011;6979;52.116;5.286;2023-04-03T13:23:27;2.27;;;0.70;;
13816;SDS011;6979;52.116;5.286;2023-04-03T13:25:55;0.93;;;0.93;;
13816;SDS011;6979;52.116;5.286;2023-04-03T13:28:26;1.87;;;1.33;;
13816;SDS011;6979;52.116;5.286;2023-04-03T13:30:54;0.90;;;0.90;;
13816;SDS011;6979;52.116;5.286;2023-04-03T13:33:25;1.03;;;0.90;;
13816;SDS011;6979;52.116;5.286;2023-04-03T13:36:15;1.20;;;1.10;;
13816;SDS011;6979;52.116;5.286;2023-04-03T13:38:54;1.40;;;1.30;;
13816;SDS011;6979;52.116;5.286;2023-04-03T13:41:29;0.90;;;0.90;;
13816;SDS011;6979;52.116;5.286;2023-04-03T13:46:57;1.47;;;1.00;;
13816;SDS011;6979;52.116;5.286;2023-04-03T13:49:30;1.13;;;1.03;;
13816;SDS011;6979;52.116;5.286;2023-04-03T13:52:02;1.33;;;1.23;;
13816;SDS011;6979;52.116;5.286;2023-04-03T13:54:51;1.27;;;1.10;;
13816;SDS011;6979;52.116;5.286;2023-04-03T13:57:21;2.60;;;1.07;;
13816;SDS011;6979;52.116;5.286;2023-04-03T13:59:53;1.83;;;1.10;;
13816;SDS011;6979;52.116;5.286;2023-04-03T14:02:21;1.33;;;0.80;;
13816;SDS011;6979;52.116;5.286;2023-04-03T14:04:56;1.97;;;1.07;;
13816;SDS011;6979;52.116;5.286;2023-04-03T14:07:28;1.17;;;1.00;;
13816;SDS011;6979;52.116;5.286;2023-04-03T14:09:56;1.03;;;0.93;;
13816;SDS011;6979;52.116;5.286;2023-04-03T14:12:24;3.07;;;1.17;;
13816;SDS011;6979;52.116;5.286;2023-04-03T14:14:53;1.00;;;1.00;;
13816;SDS011;6979;52.116;5.286;2023-04-03T14:17:22;1.53;;;0.90;;
13816;SDS011;6979;52.116;5.286;2023-04-03T14:19:53;1.30;;;0.97;;
13816;SDS011;6979;52.116;5.286;2023-04-03T14:22:27;0.90;;;0.90;;
13816;SDS011;6979;52.116;5.286;2023-04-03T14:24:57;1.00;;;1.00;;
13816;SDS011;6979;52.116;5.286;2023-04-03T14:27:25;1.10;;;1.10;;
13816;SDS011;6979;52.116;5.286;2023-04-03T14:29:54;1.53;;;1.17;;
13816;SDS011;6979;52.116;5.286;2023-04-03T14:32:22;1.10;;;1.10;;
13816;SDS011;6979;52.116;5.286;2023-04-03T14:34:53;0.80;;;0.80;;
13816;SDS011;6979;52.116;5.286;2023-04-03T14:37:22;1.10;;;1.10;;
13816;SDS011;6979;52.116;5.286;2023-04-03T14:39:53;1.00;;;1.00;;
13816;SDS011;6979;52.116;5.286;2023-04-03T14:42:23;1.07;;;1.03;;
13816;SDS011;6979;52.116;5.286;2023-04-03T14:44:52;2.93;;;2.63;;
13816;SDS011;6979;52.116;5.286;2023-04-03T14:47:19;1.50;;;1.40;;
13816;SDS011;6979;52.116;5.286;2023-04-03T14:49:48;1.77;;;1.30;;
13816;SDS011;6979;52.116;5.286;2023-04-03T14:52:17;1.07;;;1.07;;
13816;SDS011;6979;52.116;5.286;2023-04-03T14:54:46;1.57;;;1.30;;
13816;SDS011;6979;52.116;5.286;2023-04-03T14:57:15;1.10;;;1.00;;
13816;SDS011;6979;52.116;5.286;2023-04-03T14:59:43;1.00;;;1.00;;
13816;SDS011;6979;52.116;5.286;2023-04-03T15:02:18;1.30;;;1.20;;
13816;SDS011;6979;52.116;5.286;2023-04-03T15:04:52;0.90;;;0.90;;
13816;SDS011;6979;52.116;5.286;2023-04-03T15:07:19;0.67;;;0.67;;
13816;SDS011;6979;52.116;5.286;2023-04-03T15:09:46;1.17;;;1.07;;
13816;SDS011;6979;52.116;5.286;2023-04-03T15:12:13;1.13;;;1.10;;
13816;SDS011;6979;52.116;5.286;2023-04-03T15:14:41;1.43;;;1.13;;
13816;SDS011;6979;52.116;5.286;2023-04-03T15:17:08;1.70;;;1.17;;
13816;SDS011;6979;52.116;5.286;2023-04-03T15:19:41;1.77;;;1.53;;
13816;SDS011;6979;52.116;5.286;2023-04-03T15:22:08;1.70;;;1.60;;
13816;SDS011;6979;52.116;5.286;2023-04-03T15:24:41;1.67;;;1.57;;
13816;SDS011;6979;52.116;5.286;2023-04-03T15:27:08;1.93;;;1.17;;
13816;SDS011;6979;52.116;5.286;2023-04-03T15:29:36;1.60;;;1.50;;
13816;SDS011;6979;52.116;5.286;2023-04-03T15:32:05;4.37;;;1.70;;
13816;SDS011;6979;52.116;5.286;2023-04-03T15:34:33;3.80;;;1.70;;
13816;SDS011;6979;52.116;5.286;2023-04-03T15:37:02;1.60;;;1.50;;
13816;SDS011;6979;52.116;5.286;2023-04-03T15:39:29;1.40;;;1.20;;
13816;SDS011;6979;52.116;5.286;2023-04-03T15:41:57;1.37;;;1.27;;
13816;SDS011;6979;52.116;5.286;2023-04-03T15:44:31;1.07;;;1.00;;
13816;SDS011;6979;52.116;5.286;2023-04-03T15:46:59;1.07;;;1.07;;